PWSweather.com
Personal Weather Stations
Station Observations
JOE4SPEED
Jupiter, Fl, Jupiter, FL 33458

Jupiter, FlJupiter, FL 33458

Lat: 26.9373, Lon: -80.1101

Elevation: 12

Station Type: Davis VP 2

http://www.joe4speed.com/wxindex.php

High Low Average
Temperature 90.2°F32.3°F 73.0°F22.8°F 79.6°F26.4°F
Dew Point 80.7°F27.1°F 69.9°F21.1°F 73.8°F23.2°F
Winds 8.1 mph SSE13.0 mph SSE Calm Calm 1.8 mph 2.9 mph
Wind Gusts 11.5 mph18.5 mph -- 3.0 mph4.8 mph
Humidity 91% 66% 83%
Pressure 30.10 in1019.30 in 30.02 in1016.60 in -
Precipitation 0.40 in10.20 in - -
Hour Temp Dew Point Humidity Winds Wind Gusts Pressure Precip Precip Rate Daily Precip Total
12:00 AM 76.0°F24.4°C 71.8°F22.1°C 87% 1.2 mph SSE1.9 kmh SSE 2.3 mph3.7 kmh 30.07 in1018.3 mb - 0.00 in0.0 mm 0.00 in0.0 mm
12:10 AM 75.8°F24.3°C 72.0°F22.2°C 88% Calm Calm -- 30.07 in1018.3 mb - 0.00 in0.0 mm 0.00 in0.0 mm
12:20 AM 75.6°F24.2°C 71.8°F22.1°C 88% Calm Calm 1.2 mph1.9 kmh 30.07 in1018.3 mb - 0.00 in0.0 mm 0.00 in0.0 mm
12:30 AM 75.5°F24.2°C 71.7°F22.1°C 88% Calm Calm 1.2 mph1.9 kmh 30.07 in1018.3 mb - 0.00 in0.0 mm 0.00 in0.0 mm
12:40 AM 75.3°F24.1°C 71.5°F21.9°C 88% 1.2 mph SSE1.9 kmh SSE 2.3 mph3.7 kmh 30.07 in1018.3 mb - 0.00 in0.0 mm 0.00 in0.0 mm
12:50 AM 75.2°F24.0°C 71.4°F21.9°C 88% Calm Calm -- 30.07 in1018.3 mb - 0.00 in0.0 mm 0.00 in0.0 mm
01:00 AM 75.1°F23.9°C 71.6°F22.0°C 89% Calm Calm 1.2 mph1.9 kmh 30.07 in1018.3 mb - 0.00 in0.0 mm 0.00 in0.0 mm
01:10 AM 75.0°F23.9°C 71.5°F21.9°C 89% Calm Calm -- 30.07 in1018.3 mb - 0.00 in0.0 mm 0.00 in0.0 mm
01:20 AM 74.8°F23.8°C 71.3°F21.8°C 89% Calm Calm -- 30.07 in1018.3 mb - 0.00 in0.0 mm 0.00 in0.0 mm
01:30 AM 74.6°F23.7°C 71.1°F21.7°C 89% Calm Calm 1.2 mph1.9 kmh 30.07 in1018.3 mb - 0.00 in0.0 mm 0.00 in0.0 mm
01:40 AM 74.5°F23.6°C 71.0°F21.7°C 89% Calm Calm -- 30.07 in1018.3 mb - 0.00 in0.0 mm 0.00 in0.0 mm
01:50 AM 74.3°F23.5°C 70.8°F21.6°C 89% Calm Calm -- 30.06 in1017.9 mb - 0.00 in0.0 mm 0.00 in0.0 mm
02:00 AM 74.2°F23.4°C 70.7°F21.5°C 89% Calm Calm -- 30.06 in1017.9 mb - 0.00 in0.0 mm 0.00 in0.0 mm
02:10 AM 74.2°F23.4°C 70.7°F21.5°C 89% Calm Calm -- 30.05 in1017.6 mb - 0.00 in0.0 mm 0.00 in0.0 mm
02:20 AM 74.2°F23.4°C 71.0°F21.7°C 90% Calm Calm -- 30.05 in1017.6 mb - 0.00 in0.0 mm 0.00 in0.0 mm
02:30 AM 73.9°F23.3°C 70.5°F21.4°C 89% Calm Calm -- 30.05 in1017.6 mb - 0.00 in0.0 mm 0.00 in0.0 mm
02:40 AM 73.8°F23.2°C 70.7°F21.5°C 90% Calm Calm -- 30.05 in1017.6 mb - 0.00 in0.0 mm 0.00 in0.0 mm
02:50 AM 73.9°F23.3°C 70.8°F21.6°C 90% 1.2 mph SSE1.9 kmh SSE 1.2 mph1.9 kmh 30.04 in1017.3 mb - 0.00 in0.0 mm 0.00 in0.0 mm
03:00 AM 73.9°F23.3°C 70.8°F21.6°C 90% Calm Calm -- 30.04 in1017.3 mb - 0.00 in0.0 mm 0.00 in0.0 mm
03:10 AM 73.7°F23.2°C 70.6°F21.4°C 90% Calm Calm -- 30.04 in1017.3 mb - 0.00 in0.0 mm 0.00 in0.0 mm
03:20 AM 73.6°F23.1°C 70.5°F21.4°C 90% Calm Calm -- 30.04 in1017.3 mb - 0.00 in0.0 mm 0.00 in0.0 mm
03:30 AM 73.6°F23.1°C 70.5°F21.4°C 90% Calm Calm -- 30.03 in1016.9 mb - 0.00 in0.0 mm 0.00 in0.0 mm
03:40 AM 73.6°F23.1°C 70.5°F21.4°C 90% 1.2 mph SSE1.9 kmh SSE 1.2 mph1.9 kmh 30.03 in1016.9 mb - 0.00 in0.0 mm 0.00 in0.0 mm
03:50 AM 73.6°F23.1°C 70.5°F21.4°C 90% Calm Calm 1.2 mph1.9 kmh 30.03 in1016.9 mb - 0.00 in0.0 mm 0.00 in0.0 mm
04:00 AM 73.7°F23.2°C 70.6°F21.4°C 90% Calm Calm -- 30.03 in1016.9 mb - 0.00 in0.0 mm 0.00 in0.0 mm
04:10 AM 73.8°F23.2°C 70.7°F21.5°C 90% Calm Calm -- 30.03 in1016.9 mb - 0.00 in0.0 mm 0.00 in0.0 mm
04:20 AM 73.6°F23.1°C 70.5°F21.4°C 90% Calm Calm -- 30.04 in1017.3 mb - 0.00 in0.0 mm 0.00 in0.0 mm
04:30 AM 73.5°F23.1°C 70.4°F21.3°C 90% Calm Calm -- 30.03 in1016.9 mb - 0.00 in0.0 mm 0.00 in0.0 mm
04:40 AM 73.4°F23.0°C 70.3°F21.3°C 90% Calm Calm -- 30.03 in1016.9 mb - 0.00 in0.0 mm 0.00 in0.0 mm
04:50 AM 73.4°F23.0°C 70.3°F21.3°C 90% Calm Calm -- 30.03 in1016.9 mb - 0.00 in0.0 mm 0.00 in0.0 mm
05:00 AM 73.4°F23.0°C 70.3°F21.3°C 90% Calm Calm -- 30.04 in1017.3 mb - 0.00 in0.0 mm 0.00 in0.0 mm
05:10 AM 73.3°F22.9°C 70.5°F21.4°C 91% Calm Calm 1.2 mph1.9 kmh 30.04 in1017.3 mb - 0.00 in0.0 mm 0.00 in0.0 mm
05:20 AM 73.3°F22.9°C 70.5°F21.4°C 91% Calm Calm -- 30.04 in1017.3 mb - 0.00 in0.0 mm 0.00 in0.0 mm
05:30 AM 73.1°F22.8°C 70.0°F21.1°C 90% Calm Calm -- 30.04 in1017.3 mb - 0.00 in0.0 mm 0.00 in0.0 mm
05:40 AM 73.0°F22.8°C 69.9°F21.1°C 90% 1.2 mph SSE1.9 kmh SSE 1.2 mph1.9 kmh 30.04 in1017.3 mb - 0.00 in0.0 mm 0.00 in0.0 mm
05:50 AM 73.4°F23.0°C 70.6°F21.4°C 91% Calm Calm 1.2 mph1.9 kmh 30.05 in1017.6 mb - 0.00 in0.0 mm 0.00 in0.0 mm
06:00 AM 73.9°F23.3°C 71.1°F21.7°C 91% 1.2 mph SSE1.9 kmh SSE 1.2 mph1.9 kmh 30.05 in1017.6 mb - 0.00 in0.0 mm 0.00 in0.0 mm
06:10 AM 74.0°F23.3°C 71.2°F21.8°C 91% Calm Calm -- 30.05 in1017.6 mb - 0.00 in0.0 mm 0.00 in0.0 mm
06:20 AM 73.9°F23.3°C 71.1°F21.7°C 91% Calm Calm -- 30.05 in1017.6 mb - 0.00 in0.0 mm 0.00 in0.0 mm
06:30 AM 73.7°F23.2°C 70.9°F21.6°C 91% Calm Calm -- 30.05 in1017.6 mb - 0.00 in0.0 mm 0.00 in0.0 mm
06:40 AM 73.5°F23.1°C 70.7°F21.5°C 91% Calm Calm 1.2 mph1.9 kmh 30.05 in1017.6 mb - 0.00 in0.0 mm 0.00 in0.0 mm
06:50 AM 73.3°F22.9°C 70.5°F21.4°C 91% Calm Calm 1.2 mph1.9 kmh 30.05 in1017.6 mb - 0.00 in0.0 mm 0.00 in0.0 mm
07:00 AM 73.4°F23.0°C 70.6°F21.4°C 91% Calm Calm -- 30.06 in1017.9 mb - 0.00 in0.0 mm 0.00 in0.0 mm
07:10 AM 73.6°F23.1°C 70.8°F21.6°C 91% Calm Calm -- 30.06 in1017.9 mb - 0.00 in0.0 mm 0.00 in0.0 mm
07:20 AM 73.9°F23.3°C 71.1°F21.7°C 91% Calm Calm -- 30.06 in1017.9 mb - 0.00 in0.0 mm 0.00 in0.0 mm
07:30 AM 74.4°F23.6°C 71.6°F22.0°C 91% Calm Calm 1.2 mph1.9 kmh 30.07 in1018.3 mb - 0.00 in0.0 mm 0.00 in0.0 mm
07:40 AM 75.1°F23.9°C 72.3°F22.4°C 91% Calm Calm -- 30.07 in1018.3 mb - 0.00 in0.0 mm 0.00 in0.0 mm
07:50 AM 75.4°F24.1°C 72.6°F22.6°C 91% Calm Calm -- 30.07 in1018.3 mb - 0.00 in0.0 mm 0.00 in0.0 mm
08:00 AM 75.6°F24.2°C 72.8°F22.7°C 91% Calm Calm -- 30.07 in1018.3 mb - 0.00 in0.0 mm 0.00 in0.0 mm
08:10 AM 76.0°F24.4°C 73.2°F22.9°C 91% Calm Calm -- 30.08 in1018.6 mb - 0.00 in0.0 mm 0.00 in0.0 mm
08:20 AM 76.8°F24.9°C 74.0°F23.3°C 91% 1.2 mph S1.9 kmh S 3.5 mph5.6 kmh 30.08 in1018.6 mb - 0.00 in0.0 mm 0.00 in0.0 mm
08:30 AM 77.3°F25.2°C 74.5°F23.6°C 91% Calm Calm 3.5 mph5.6 kmh 30.08 in1018.6 mb - 0.00 in0.0 mm 0.00 in0.0 mm
08:40 AM 78.1°F25.6°C 75.2°F24.0°C 91% Calm Calm 2.3 mph3.7 kmh 30.08 in1018.6 mb - 0.00 in0.0 mm 0.00 in0.0 mm
08:50 AM 79.1°F26.2°C 76.2°F24.6°C 91% 1.2 mph SE1.9 kmh SE 2.3 mph3.7 kmh 30.08 in1018.6 mb - 0.00 in0.0 mm 0.00 in0.0 mm
09:00 AM 79.5°F26.4°C 76.3°F24.6°C 90% 1.2 mph S1.9 kmh S 2.3 mph3.7 kmh 30.08 in1018.6 mb - 0.00 in0.0 mm 0.00 in0.0 mm
09:10 AM 80.4°F26.9°C 76.8°F24.9°C 89% 2.3 mph S3.7 kmh S 3.5 mph5.6 kmh 30.08 in1018.6 mb - 0.00 in0.0 mm 0.00 in0.0 mm
09:20 AM 81.7°F27.6°C 77.1°F25.1°C 86% 3.5 mph SW5.6 kmh SW 4.6 mph7.4 kmh 30.09 in1019.0 mb - 0.00 in0.0 mm 0.00 in0.0 mm
09:30 AM 83.2°F28.4°C 77.1°F25.1°C 82% 2.3 mph S3.7 kmh S 4.6 mph7.4 kmh 30.09 in1019.0 mb - 0.00 in0.0 mm 0.00 in0.0 mm
09:40 AM 84.7°F29.3°C 76.7°F24.8°C 77% 3.5 mph SE5.6 kmh SE 3.5 mph5.6 kmh 30.09 in1019.0 mb - 0.00 in0.0 mm 0.00 in0.0 mm
09:50 AM 86.6°F30.3°C 77.3°F25.2°C 74% 1.2 mph WSW1.9 kmh WSW 2.3 mph3.7 kmh 30.09 in1019.0 mb - 0.00 in0.0 mm 0.00 in0.0 mm
10:00 AM 87.8°F31.0°C 76.8°F24.9°C 70% 2.3 mph SE3.7 kmh SE 5.8 mph9.3 kmh 30.09 in1019.0 mb - 0.00 in0.0 mm 0.00 in0.0 mm
10:10 AM 87.9°F31.1°C 75.6°F24.2°C 67% 2.3 mph SW3.7 kmh SW 3.5 mph5.6 kmh 30.09 in1019.0 mb - 0.00 in0.0 mm 0.00 in0.0 mm
10:20 AM 88.3°F31.3°C 76.4°F24.7°C 68% 2.3 mph S3.7 kmh S 4.6 mph7.4 kmh 30.10 in1019.3 mb - 0.00 in0.0 mm 0.00 in0.0 mm
10:30 AM 88.6°F31.4°C 75.8°F24.3°C 66% 4.6 mph SE7.4 kmh SE 6.9 mph11.1 kmh 30.10 in1019.3 mb - 0.00 in0.0 mm 0.00 in0.0 mm
10:40 AM 88.5°F31.4°C 75.7°F24.3°C 66% 3.5 mph SE5.6 kmh SE 4.6 mph7.4 kmh 30.09 in1019.0 mb - 0.00 in0.0 mm 0.00 in0.0 mm
10:50 AM 88.7°F31.5°C 77.2°F25.1°C 69% 2.3 mph SE3.7 kmh SE 3.5 mph5.6 kmh 30.10 in1019.3 mb - 0.00 in0.0 mm 0.00 in0.0 mm
11:00 AM 88.7°F31.5°C 76.8°F24.9°C 68% 3.5 mph E5.6 kmh E 9.2 mph14.8 kmh 30.10 in1019.3 mb - 0.00 in0.0 mm 0.00 in0.0 mm
11:10 AM 88.5°F31.4°C 77.0°F25.0°C 69% 5.8 mph ESE9.3 kmh ESE 6.9 mph11.1 kmh 30.10 in1019.3 mb - 0.00 in0.0 mm 0.00 in0.0 mm
11:20 AM 88.1°F31.2°C 77.1°F25.1°C 70% 5.8 mph SE9.3 kmh SE 6.9 mph11.1 kmh 30.10 in1019.3 mb - 0.00 in0.0 mm 0.00 in0.0 mm
11:30 AM 88.0°F31.1°C 77.8°F25.4°C 72% 4.6 mph E7.4 kmh E 6.9 mph11.1 kmh 30.10 in1019.3 mb - 0.00 in0.0 mm 0.00 in0.0 mm
11:40 AM 88.3°F31.3°C 77.7°F25.4°C 71% 4.6 mph ESE7.4 kmh ESE 8.1 mph13.0 kmh 30.10 in1019.3 mb - 0.00 in0.0 mm 0.00 in0.0 mm
11:50 AM 88.0°F31.1°C 76.6°F24.8°C 69% 5.8 mph ESE9.3 kmh ESE 8.1 mph13.0 kmh 30.10 in1019.3 mb - 0.00 in0.0 mm 0.00 in0.0 mm
12:00 PM 88.2°F31.2°C 75.9°F24.4°C 67% 4.6 mph E7.4 kmh E 9.2 mph14.8 kmh 30.10 in1019.3 mb - 0.00 in0.0 mm 0.00 in0.0 mm
12:10 PM 88.4°F31.3°C 76.5°F24.7°C 68% 6.9 mph ESE11.1 kmh ESE 9.2 mph14.8 kmh 30.09 in1019.0 mb - 0.00 in0.0 mm 0.00 in0.0 mm
12:20 PM 88.8°F31.6°C 76.0°F24.4°C 66% 4.6 mph ESE7.4 kmh ESE 6.9 mph11.1 kmh 30.09 in1019.0 mb - 0.00 in0.0 mm 0.00 in0.0 mm
12:30 PM 88.2°F31.2°C 75.8°F24.3°C 67% 6.9 mph S11.1 kmh S 11.5 mph18.5 kmh 30.09 in1019.0 mb - 0.00 in0.0 mm 0.00 in0.0 mm
12:40 PM 85.2°F29.6°C 75.6°F24.2°C 73% 3.5 mph SE5.6 kmh SE 9.2 mph14.8 kmh 30.09 in1019.0 mb - 0.00 in0.0 mm 0.00 in0.0 mm
12:50 PM 85.7°F29.8°C 76.4°F24.7°C 74% 3.5 mph E5.6 kmh E 4.6 mph7.4 kmh 30.09 in1019.0 mb - 0.00 in0.0 mm 0.00 in0.0 mm
01:00 PM 85.5°F29.7°C 75.9°F24.4°C 73% 8.1 mph SSE13.0 kmh SSE 11.5 mph18.5 kmh 30.09 in1019.0 mb - 0.00 in0.0 mm 0.00 in0.0 mm
01:10 PM 81.3°F27.4°C 74.2°F23.4°C 79% Calm Calm 1.2 mph1.9 kmh 30.09 in1019.0 mb - 0.29 in7.4 mm 0.29 in7.4 mm
01:20 PM 79.5°F26.4°C 73.9°F23.3°C 83% 3.5 mph E5.6 kmh E 3.5 mph5.6 kmh 30.10 in1019.3 mb - 0.07 in1.8 mm 0.36 in9.1 mm
01:30 PM 78.0°F25.6°C 72.8°F22.7°C 84% 3.5 mph SE5.6 kmh SE 6.9 mph11.1 kmh 30.10 in1019.3 mb - 0.02 in0.5 mm 0.37 in9.4 mm
01:40 PM 76.9°F24.9°C 72.0°F22.2°C 85% 4.6 mph SE7.4 kmh SE 6.9 mph11.1 kmh 30.09 in1019.0 mb - 0.01 in0.3 mm 0.38 in9.7 mm
01:50 PM 77.2°F25.1°C 72.7°F22.6°C 86% 1.2 mph NE1.9 kmh NE 2.3 mph3.7 kmh 30.09 in1019.0 mb - 0.01 in0.3 mm 0.39 in9.9 mm
02:00 PM 78.9°F26.1°C 75.0°F23.9°C 88% 1.2 mph NE1.9 kmh NE 2.3 mph3.7 kmh 30.08 in1018.6 mb - 0.00 in0.0 mm 0.39 in9.9 mm
02:10 PM 80.3°F26.8°C 76.7°F24.8°C 89% 1.2 mph E1.9 kmh E 2.3 mph3.7 kmh 30.07 in1018.3 mb - 0.00 in0.0 mm 0.39 in9.9 mm
02:20 PM 82.2°F27.9°C 78.6°F25.9°C 89% 2.3 mph E3.7 kmh E 3.5 mph5.6 kmh 30.07 in1018.3 mb - 0.00 in0.0 mm 0.39 in9.9 mm
02:30 PM 84.9°F29.4°C 80.2°F26.8°C 86% 4.6 mph E7.4 kmh E 5.8 mph9.3 kmh 30.06 in1017.9 mb - 0.00 in0.0 mm 0.39 in9.9 mm
02:40 PM 86.5°F30.3°C 80.7°F27.1°C 83% 3.5 mph ESE5.6 kmh ESE 4.6 mph7.4 kmh 30.07 in1018.3 mb - 0.00 in0.0 mm 0.39 in9.9 mm
02:50 PM 87.8°F31.0°C 80.1°F26.7°C 78% 5.8 mph SE9.3 kmh SE 6.9 mph11.1 kmh 30.06 in1017.9 mb - 0.00 in0.0 mm 0.39 in9.9 mm
03:00 PM 88.0°F31.1°C 79.0°F26.1°C 75% 6.9 mph SE11.1 kmh SE 10.4 mph16.7 kmh 30.06 in1017.9 mb - 0.00 in0.0 mm 0.39 in9.9 mm
03:10 PM 88.7°F31.5°C 78.9°F26.1°C 73% 6.9 mph ESE11.1 kmh ESE 6.9 mph11.1 kmh 30.06 in1017.9 mb - 0.00 in0.0 mm 0.39 in9.9 mm
03:20 PM 89.5°F31.9°C 79.7°F26.5°C 73% 5.8 mph SE9.3 kmh SE 9.2 mph14.8 kmh 30.05 in1017.6 mb - 0.00 in0.0 mm 0.39 in9.9 mm
03:30 PM 89.6°F32.0°C 78.9°F26.1°C 71% 5.8 mph E9.3 kmh E 9.2 mph14.8 kmh 30.05 in1017.6 mb - 0.00 in0.0 mm 0.39 in9.9 mm
03:40 PM 90.2°F32.3°C 79.1°F26.2°C 70% 6.9 mph SE11.1 kmh SE 10.4 mph16.7 kmh 30.04 in1017.3 mb - 0.00 in0.0 mm 0.39 in9.9 mm
03:50 PM 90.0°F32.2°C 79.3°F26.3°C 71% 4.6 mph SE7.4 kmh SE 8.1 mph13.0 kmh 30.03 in1016.9 mb - 0.00 in0.0 mm 0.39 in9.9 mm
04:00 PM 90.1°F32.3°C 79.0°F26.1°C 70% 5.8 mph E9.3 kmh E 10.4 mph16.7 kmh 30.02 in1016.6 mb - 0.00 in0.0 mm 0.39 in9.9 mm
04:10 PM 89.8°F32.1°C 78.7°F25.9°C 70% 8.1 mph SE13.0 kmh SE 11.5 mph18.5 kmh 30.02 in1016.6 mb - 0.00 in0.0 mm 0.39 in9.9 mm
04:20 PM 89.8°F32.1°C 78.7°F25.9°C 70% 6.9 mph ESE11.1 kmh ESE 10.4 mph16.7 kmh 30.03 in1016.9 mb - 0.00 in0.0 mm 0.39 in9.9 mm
04:30 PM 88.3°F31.3°C 76.9°F24.9°C 69% 5.8 mph SSE9.3 kmh SSE 8.1 mph13.0 kmh 30.04 in1017.3 mb - 0.00 in0.0 mm 0.39 in9.9 mm
04:40 PM 85.6°F29.8°C 74.7°F23.7°C 70% 5.8 mph SW9.3 kmh SW 8.1 mph13.0 kmh 30.05 in1017.6 mb - 0.00 in0.0 mm 0.39 in9.9 mm
04:50 PM 83.0°F28.3°C 73.4°F23.0°C 73% 3.5 mph SW5.6 kmh SW 3.5 mph5.6 kmh 30.04 in1017.3 mb - 0.00 in0.0 mm 0.39 in9.9 mm
05:00 PM 82.2°F27.9°C 73.1°F22.8°C 74% 4.6 mph W7.4 kmh W 6.9 mph11.1 kmh 30.05 in1017.6 mb - 0.00 in0.0 mm 0.39 in9.9 mm
05:10 PM 81.6°F27.6°C 73.3°F22.9°C 76% 2.3 mph WSW3.7 kmh WSW 4.6 mph7.4 kmh 30.05 in1017.6 mb - 0.00 in0.0 mm 0.39 in9.9 mm
05:20 PM 80.7°F27.1°C 72.8°F22.7°C 77% 2.3 mph WSW3.7 kmh WSW 3.5 mph5.6 kmh 30.05 in1017.6 mb - 0.00 in0.0 mm 0.39 in9.9 mm
05:30 PM 80.4°F26.9°C 72.9°F22.7°C 78% 3.5 mph WNW5.6 kmh WNW 4.6 mph7.4 kmh 30.04 in1017.3 mb - 0.00 in0.0 mm 0.39 in9.9 mm
05:40 PM 80.1°F26.7°C 73.4°F23.0°C 80% 3.5 mph W5.6 kmh W 4.6 mph7.4 kmh 30.05 in1017.6 mb - 0.00 in0.0 mm 0.39 in9.9 mm
05:50 PM 79.9°F26.6°C 73.6°F23.1°C 81% 3.5 mph WNW5.6 kmh WNW 3.5 mph5.6 kmh 30.05 in1017.6 mb - 0.00 in0.0 mm 0.39 in9.9 mm
06:00 PM 79.8°F26.6°C 73.8°F23.2°C 82% 2.3 mph NW3.7 kmh NW 2.3 mph3.7 kmh 30.05 in1017.6 mb - 0.00 in0.0 mm 0.39 in9.9 mm
06:10 PM 79.6°F26.4°C 74.0°F23.3°C 83% 2.3 mph NW3.7 kmh NW 2.3 mph3.7 kmh 30.05 in1017.6 mb - 0.00 in0.0 mm 0.39 in9.9 mm
06:20 PM 79.5°F26.4°C 74.2°F23.4°C 84% 1.2 mph WNW1.9 kmh WNW 2.3 mph3.7 kmh 30.05 in1017.6 mb - 0.00 in0.0 mm 0.39 in9.9 mm
06:30 PM 79.5°F26.4°C 74.2°F23.4°C 84% 2.3 mph NW3.7 kmh NW 4.6 mph7.4 kmh 30.05 in1017.6 mb - 0.00 in0.0 mm 0.39 in9.9 mm
06:40 PM 79.3°F26.3°C 73.7°F23.2°C 83% Calm Calm 1.2 mph1.9 kmh 30.05 in1017.6 mb - 0.00 in0.0 mm 0.39 in9.9 mm
06:50 PM 79.4°F26.3°C 73.8°F23.2°C 83% 1.2 mph NNW1.9 kmh NNW 2.3 mph3.7 kmh 30.05 in1017.6 mb - 0.00 in0.0 mm 0.39 in9.9 mm
07:00 PM 79.5°F26.4°C 73.9°F23.3°C 83% 1.2 mph NNW1.9 kmh NNW 1.2 mph1.9 kmh 30.05 in1017.6 mb - 0.00 in0.0 mm 0.39 in9.9 mm
07:10 PM 79.6°F26.4°C 73.6°F23.1°C 82% Calm Calm 2.3 mph3.7 kmh 30.05 in1017.6 mb - 0.00 in0.0 mm 0.39 in9.9 mm
07:20 PM 79.7°F26.5°C 73.7°F23.2°C 82% 1.2 mph NNW1.9 kmh NNW 2.3 mph3.7 kmh 30.05 in1017.6 mb - 0.00 in0.0 mm 0.39 in9.9 mm
07:30 PM 79.8°F26.6°C 73.8°F23.2°C 82% 3.5 mph NW5.6 kmh NW 4.6 mph7.4 kmh 30.05 in1017.6 mb - 0.00 in0.0 mm 0.39 in9.9 mm
07:40 PM 79.9°F26.6°C 73.9°F23.3°C 82% 1.2 mph WNW1.9 kmh WNW 3.5 mph5.6 kmh 30.05 in1017.6 mb - 0.00 in0.0 mm 0.39 in9.9 mm
07:50 PM 80.0°F26.7°C 74.4°F23.6°C 83% 1.2 mph W1.9 kmh W 2.3 mph3.7 kmh 30.06 in1017.9 mb - 0.00 in0.0 mm 0.39 in9.9 mm
08:00 PM 79.8°F26.6°C 74.2°F23.4°C 83% 1.2 mph W1.9 kmh W 2.3 mph3.7 kmh 30.06 in1017.9 mb - 0.00 in0.0 mm 0.39 in9.9 mm
08:10 PM 79.7°F26.5°C 74.1°F23.4°C 83% Calm Calm 1.2 mph1.9 kmh 30.06 in1017.9 mb - 0.00 in0.0 mm 0.39 in9.9 mm
08:20 PM 79.5°F26.4°C 74.2°F23.4°C 84% Calm Calm 1.2 mph1.9 kmh 30.05 in1017.6 mb - 0.00 in0.0 mm 0.39 in9.9 mm
08:30 PM 79.3°F26.3°C 74.0°F23.3°C 84% 1.2 mph WNW1.9 kmh WNW 2.3 mph3.7 kmh 30.05 in1017.6 mb - 0.00 in0.0 mm 0.39 in9.9 mm
08:40 PM 79.1°F26.2°C 73.9°F23.3°C 84% Calm Calm -- 30.05 in1017.6 mb - 0.00 in0.0 mm 0.39 in9.9 mm
08:50 PM 79.0°F26.1°C 73.7°F23.2°C 84% 1.2 mph NE1.9 kmh NE 2.3 mph3.7 kmh 30.05 in1017.6 mb - 0.00 in0.0 mm 0.39 in9.9 mm
09:00 PM 78.8°F26.0°C 73.6°F23.1°C 84% Calm Calm 2.3 mph3.7 kmh 30.06 in1017.9 mb - 0.00 in0.0 mm 0.39 in9.9 mm
09:10 PM 78.8°F26.0°C 73.6°F23.1°C 84% 1.2 mph NE1.9 kmh NE 1.2 mph1.9 kmh 30.06 in1017.9 mb - 0.00 in0.0 mm 0.39 in9.9 mm
09:20 PM 78.7°F25.9°C 73.5°F23.1°C 84% Calm Calm 2.3 mph3.7 kmh 30.06 in1017.9 mb - 0.00 in0.0 mm 0.39 in9.9 mm
09:30 PM 78.8°F26.0°C 73.6°F23.1°C 84% 1.2 mph NW1.9 kmh NW 2.3 mph3.7 kmh 30.06 in1017.9 mb - 0.00 in0.0 mm 0.39 in9.9 mm
09:40 PM 78.8°F26.0°C 73.9°F23.3°C 85% 1.2 mph NW1.9 kmh NW 2.3 mph3.7 kmh 30.06 in1017.9 mb - 0.00 in0.0 mm 0.39 in9.9 mm
09:50 PM 78.7°F25.9°C 73.8°F23.2°C 85% 1.2 mph NW1.9 kmh NW 1.2 mph1.9 kmh 30.05 in1017.6 mb - 0.00 in0.0 mm 0.39 in9.9 mm
10:00 PM 78.5°F25.8°C 74.0°F23.3°C 86% Calm Calm -- 30.05 in1017.6 mb - 0.00 in0.0 mm 0.39 in9.9 mm
10:10 PM 78.4°F25.8°C 73.9°F23.3°C 86% 1.2 mph NW1.9 kmh NW 2.3 mph3.7 kmh 30.05 in1017.6 mb - 0.00 in0.0 mm 0.39 in9.9 mm
10:20 PM 78.3°F25.7°C 73.8°F23.2°C 86% Calm Calm -- 30.05 in1017.6 mb - 0.00 in0.0 mm 0.39 in9.9 mm
10:30 PM 78.2°F25.7°C 73.7°F23.2°C 86% Calm Calm -- 30.05 in1017.6 mb - 0.00 in0.0 mm 0.39 in9.9 mm
10:40 PM 78.0°F25.6°C 73.5°F23.1°C 86% Calm Calm -- 30.05 in1017.6 mb - 0.00 in0.0 mm 0.39 in9.9 mm
10:50 PM 77.8°F25.4°C 73.3°F22.9°C 86% Calm Calm -- 30.05 in1017.6 mb - 0.00 in0.0 mm 0.39 in9.9 mm
11:00 PM 77.7°F25.4°C 73.2°F22.9°C 86% Calm Calm -- 30.05 in1017.6 mb - 0.00 in0.0 mm 0.39 in9.9 mm
11:10 PM 77.4°F25.2°C 72.9°F22.7°C 86% Calm Calm -- 30.05 in1017.6 mb - 0.00 in0.0 mm 0.39 in9.9 mm
11:20 PM 77.3°F25.2°C 73.1°F22.8°C 87% Calm Calm -- 30.05 in1017.6 mb - 0.00 in0.0 mm 0.39 in9.9 mm
11:30 PM 77.2°F25.1°C 73.0°F22.8°C 87% Calm Calm -- 30.05 in1017.6 mb - 0.00 in0.0 mm 0.39 in9.9 mm
11:40 PM 77.2°F25.1°C 73.0°F22.8°C 87% Calm Calm -- 30.06 in1017.9 mb - 0.00 in0.0 mm 0.39 in9.9 mm
11:50 PM 77.1°F25.1°C 72.9°F22.7°C 87% Calm Calm -- 30.05 in1017.6 mb - 0.00 in0.0 mm 0.39 in9.9 mm